createdAt,value
2022-11-29T00:00:59.767Z,11.20
2022-11-29T00:06:06.664Z,12.00
2022-11-29T00:11:10.632Z,10.60
2022-11-29T00:16:13.384Z,11.00
2022-11-29T00:21:17.497Z,12.60
2022-11-29T00:26:20.416Z,11.60
2022-11-29T00:31:23.873Z,12.00
2022-11-29T00:36:28.150Z,12.20
2022-11-29T00:41:31.383Z,12.60
2022-11-29T00:46:34.366Z,11.00
2022-11-29T00:51:38.552Z,11.00
2022-11-29T00:56:41.646Z,11.00
2022-11-29T01:01:44.677Z,12.20
2022-11-29T01:06:51.249Z,11.00
2022-11-29T01:11:54.045Z,11.40
2022-11-29T01:16:57.096Z,11.00
2022-11-29T01:22:01.321Z,10.40
2022-11-29T01:27:04.094Z,12.00
2022-11-29T01:32:07.042Z,11.00
2022-11-29T01:37:11.153Z,11.00
2022-11-29T01:42:14.024Z,11.00
2022-11-29T01:47:16.998Z,11.20
2022-11-29T01:52:22.418Z,11.00
2022-11-29T01:57:25.359Z,10.40
2022-11-29T02:02:30.342Z,10.00
2022-11-29T02:07:34.612Z,11.20
2022-11-29T02:12:41.566Z,8.20
2022-11-29T02:17:53.161Z,11.00
2022-11-29T02:22:58.392Z,8.80
2022-11-29T02:28:31.232Z,8.00
2022-11-29T02:33:59.182Z,9.80
2022-11-29T02:39:09.118Z,9.80
2022-11-29T02:44:29.763Z,8.40
2022-11-29T02:49:42.737Z,9.80
2022-11-29T02:54:48.061Z,9.80
2022-11-29T02:59:53.857Z,10.60
2022-11-29T03:05:00.898Z,8.80
2022-11-29T03:10:06.311Z,7.80
2022-11-29T03:15:18.116Z,8.00
2022-11-29T03:20:30.343Z,9.60
2022-11-29T03:25:34.983Z,10.00
2022-11-29T03:30:38.771Z,8.40
2022-11-29T03:35:44.900Z,8.80
2022-11-29T03:40:51.288Z,7.40
2022-11-29T03:45:57.105Z,8.60
2022-11-29T03:51:04.574Z,10.00
2022-11-29T03:56:23.997Z,8.40
2022-11-29T04:01:56.928Z,8.00
2022-11-29T04:07:06.922Z,8.00
2022-11-29T04:12:37.734Z,9.60
2022-11-29T04:17:55.599Z,10.00
2022-11-29T04:23:34.553Z,7.40
2022-11-29T04:29:00.636Z,8.60
2022-11-29T04:34:19.270Z,8.80
2022-11-29T04:39:33.451Z,7.00
2022-11-29T04:44:44.532Z,8.80
2022-11-29T04:49:56.721Z,7.20
2022-11-29T04:55:03.356Z,9.60
2022-11-29T05:00:09.950Z,8.20
2022-11-29T05:05:19.512Z,8.60
2022-11-29T05:10:26.305Z,9.00
2022-11-29T05:16:05.622Z,8.60
2022-11-29T05:21:10.648Z,9.80
2022-11-29T05:26:15.984Z,7.80
2022-11-29T05:31:44.553Z,8.80
2022-11-29T05:36:50.133Z,7.00
2022-11-29T05:42:05.382Z,9.00
2022-11-29T05:47:10.704Z,9.00
2022-11-29T05:52:24.300Z,7.00
2022-11-29T05:57:30.274Z,9.00
2022-11-29T06:02:46.765Z,9.40
2022-11-29T06:07:52.992Z,6.40
2022-11-29T06:13:00.304Z,9.20
2022-11-29T06:18:15.120Z,7.00
2022-11-29T06:23:24.605Z,6.00
2022-11-29T06:28:33.033Z,8.00
2022-11-29T06:33:41.609Z,6.00
2022-11-29T06:38:44.845Z,8.80
2022-11-29T06:43:48.232Z,9.00
2022-11-29T06:48:57.851Z,6.40
2022-11-29T06:54:10.023Z,6.00
2022-11-29T06:59:18.335Z,9.00
2022-11-29T07:04:46.376Z,7.00
2022-11-29T07:09:50.622Z,5.80
2022-11-29T07:14:54.258Z,7.00
2022-11-29T07:20:04.550Z,6.00
2022-11-29T07:25:13.556Z,7.00
2022-11-29T07:30:18.018Z,7.00
2022-11-29T07:35:24.015Z,6.60
2022-11-29T07:40:34.440Z,6.00
2022-11-29T07:45:40.155Z,6.00
2022-11-29T07:50:44.435Z,8.60
2022-11-29T07:55:47.354Z,7.00
2022-11-29T08:00:50.208Z,5.00
2022-11-29T08:05:54.739Z,26.00
2022-11-29T08:10:57.486Z,26.60
2022-11-29T08:16:00.343Z,25.00
2022-11-29T08:21:08.108Z,20.00
2022-11-29T08:26:10.929Z,20.00
2022-11-29T08:31:14.041Z,15.60
2022-11-29T08:36:19.029Z,14.80
2022-11-29T08:41:21.807Z,18.20
2022-11-29T08:46:44.785Z,16.00
2022-11-29T08:51:48.937Z,17.00
2022-11-29T09:02:14.571Z,14.40
2022-11-29T09:07:18.917Z,13.60
2022-11-29T09:12:21.779Z,13.60
2022-11-29T09:17:24.606Z,14.40
2022-11-29T09:22:28.784Z,14.20
2022-11-29T09:27:32.056Z,12.40
2022-11-29T09:32:35.499Z,19.20
2022-11-29T09:37:42.894Z,24.60
2022-11-29T09:42:51.053Z,31.60
2022-11-29T09:47:59.866Z,30.60
2022-11-29T09:53:15.943Z,32.00
2022-11-29T09:58:20.765Z,32.00
2022-11-29T10:03:25.406Z,30.20
2022-11-29T10:08:34.806Z,29.00
2022-11-29T10:13:40.423Z,29.75
2022-11-29T10:18:45.270Z,27.00
2022-11-29T10:23:50.220Z,29.50
2022-11-29T10:28:55.961Z,29.40
2022-11-29T10:34:00.802Z,30.00
2022-11-29T10:39:12.986Z,28.20
2022-11-29T10:44:17.110Z,26.40
2022-11-29T10:49:20.769Z,22.00
2022-11-29T10:54:33.648Z,23.00
2022-11-29T10:59:36.401Z,22.20
2022-11-29T11:04:45.733Z,23.00
2022-11-29T11:09:50.735Z,18.80
2022-11-29T11:14:53.948Z,23.80
2022-11-29T11:19:58.111Z,17.80
2022-11-29T11:25:03.122Z,18.60
2022-11-29T11:30:06.955Z,19.60
2022-11-29T11:35:22.446Z,17.80
2022-11-29T11:40:28.965Z,18.80
2022-11-29T11:45:34.181Z,18.00
2022-11-29T11:50:41.528Z,16.80
2022-11-29T11:55:56.773Z,16.00
2022-11-29T12:01:04.736Z,16.80
2022-11-29T12:06:18.753Z,19.00
2022-11-29T12:11:22.969Z,17.60
2022-11-29T12:16:28.488Z,16.40
2022-11-29T12:21:34.368Z,14.00
2022-11-29T12:32:15.795Z,16.40
2022-11-29T12:37:21.823Z,15.00
2022-11-29T12:42:36.578Z,14.80
2022-11-29T12:47:50.333Z,14.40
2022-11-29T12:52:59.612Z,12.00
2022-11-29T12:58:05.921Z,14.40
2022-11-29T13:03:22.455Z,20.20
2022-11-29T13:08:46.913Z,19.80
2022-11-29T13:13:52.807Z,19.40
2022-11-29T13:18:58.081Z,15.40
2022-11-29T13:24:10.537Z,15.40
2022-11-29T13:29:17.966Z,16.80
2022-11-29T13:34:23.217Z,16.20
2022-11-29T13:39:33.762Z,17.40
2022-11-29T13:44:39.338Z,19.80
2022-11-29T13:49:53.420Z,20.60
2022-11-29T13:55:07.353Z,20.80
2022-11-29T14:00:28.940Z,25.20
2022-11-29T14:05:32.397Z,28.50
2022-11-29T14:10:35.178Z,24.40
2022-11-29T14:15:39.393Z,27.00
2022-11-29T14:20:46.503Z,27.75
2022-11-29T14:26:28.512Z,25.20
2022-11-29T14:31:56.113Z,25.60
2022-11-29T14:37:00.569Z,27.20
2022-11-29T14:42:07.767Z,23.80
2022-11-29T14:47:21.224Z,24.80
2022-11-29T14:52:32.013Z,26.80
2022-11-29T14:58:11.339Z,24.80
2022-11-29T15:03:19.913Z,27.40
2022-11-29T15:08:32.138Z,26.60
2022-11-29T15:13:36.672Z,25.00
2022-11-29T15:19:08.254Z,24.00
2022-11-29T15:24:11.871Z,24.80
2022-11-29T15:29:15.419Z,24.40
2022-11-29T15:34:21.813Z,24.00
2022-11-29T15:39:26.230Z,23.80
2022-11-29T15:44:29.058Z,23.80
2022-11-29T15:49:33.217Z,24.20
2022-11-29T15:54:38.665Z,27.60
2022-11-29T15:59:42.831Z,26.00
2022-11-29T16:04:47.447Z,27.80
2022-11-29T16:09:51.649Z,25.20
2022-11-29T16:14:55.925Z,26.60
2022-11-29T16:20:23.560Z,25.80
2022-11-29T16:25:27.450Z,28.00
2022-11-29T16:30:30.204Z,32.50
2022-11-29T16:35:34.884Z,26.50
2022-11-29T16:40:37.860Z,27.50
2022-11-29T16:45:41.200Z,32.00
2022-11-29T16:50:46.060Z,31.25
2022-11-29T16:55:48.902Z,29.25
2022-11-29T17:00:52.079Z,30.75
2022-11-29T17:05:56.329Z,28.80
2022-11-29T17:10:59.197Z,26.00
2022-11-29T17:16:01.982Z,27.80
2022-11-29T17:21:06.420Z,27.80
2022-11-29T17:26:10.102Z,26.20
2022-11-29T17:31:13.184Z,25.60
2022-11-29T17:36:18.189Z,25.00
2022-11-29T17:41:22.623Z,25.75
2022-11-29T17:46:26.065Z,24.60
2022-11-29T17:56:53.065Z,25.20
2022-11-29T18:01:55.912Z,25.80
2022-11-29T18:07:01.480Z,24.20
2022-11-29T18:12:04.593Z,24.40
2022-11-29T18:17:07.413Z,24.20
2022-11-29T18:22:11.697Z,24.00
2022-11-29T18:27:14.701Z,24.00
2022-11-29T18:32:17.555Z,23.60
2022-11-29T18:37:47.471Z,22.20
2022-11-29T18:42:44.524Z,24.80
2022-11-29T18:47:47.503Z,21.40
2022-11-29T18:52:54.073Z,23.20
2022-11-29T18:57:56.857Z,25.00
2022-11-29T19:02:59.702Z,23.20
2022-11-29T19:08:03.853Z,22.00
2022-11-29T19:13:06.665Z,25.40
2022-11-29T19:18:09.525Z,24.60
2022-11-29T19:23:13.731Z,21.00
2022-11-29T19:28:17.135Z,22.00
2022-11-29T19:33:19.916Z,24.20
2022-11-29T19:38:24.066Z,21.80
2022-11-29T19:43:26.867Z,20.80
2022-11-29T19:48:29.717Z,20.80
2022-11-29T19:53:34.325Z,22.60
2022-11-29T19:58:37.345Z,22.20
2022-11-29T20:03:40.399Z,20.00
2022-11-29T20:08:44.750Z,19.80
2022-11-29T20:13:48.202Z,20.40
2022-11-29T20:18:51.554Z,20.20
2022-11-29T20:23:57.344Z,20.20
2022-11-29T20:29:00.322Z,17.20
2022-11-29T20:34:03.349Z,19.00
2022-11-29T20:39:12.710Z,18.60
2022-11-29T20:44:18.189Z,18.20
2022-11-29T20:49:21.527Z,17.00
2022-11-29T20:54:25.774Z,17.40
2022-11-29T20:59:28.679Z,18.40
2022-11-29T21:04:58.529Z,18.00
2022-11-29T21:10:02.703Z,18.20
2022-11-29T21:15:06.650Z,16.40
2022-11-29T21:20:10.187Z,17.40
2022-11-29T21:25:16.650Z,15.80
2022-11-29T21:30:20.957Z,17.40
2022-11-29T21:35:23.701Z,15.40
2022-11-29T21:40:27.906Z,17.00
2022-11-29T21:45:30.648Z,16.00
2022-11-29T21:50:33.386Z,16.00
2022-11-29T21:55:37.558Z,15.80
2022-11-29T22:00:40.319Z,17.60
2022-11-29T22:05:43.123Z,17.40
2022-11-29T22:10:47.217Z,17.00
2022-11-29T22:15:50.011Z,16.40
2022-11-29T22:20:52.913Z,15.00
2022-11-29T22:25:57.057Z,15.20
2022-11-29T22:31:06.639Z,13.40
2022-11-29T22:36:10.634Z,15.20
2022-11-29T22:41:15.242Z,15.40
2022-11-29T22:46:19.633Z,15.00
2022-11-29T22:51:23.224Z,17.00
2022-11-29T22:56:28.260Z,14.60
2022-11-29T23:01:31.958Z,12.60
2022-11-29T23:06:35.709Z,14.40
2022-11-29T23:11:39.898Z,14.00
2022-11-29T23:16:42.762Z,13.00
2022-11-29T23:21:46.235Z,14.00
2022-11-29T23:26:50.484Z,15.20
2022-11-29T23:31:53.393Z,13.80
2022-11-29T23:36:56.417Z,13.80
2022-11-29T23:42:00.740Z,13.40
2022-11-29T23:47:03.552Z,13.60
2022-11-29T23:52:06.404Z,14.00
2022-11-29T23:57:10.626Z,12.40
